createdAt,value
2022-09-04T00:00:15.624Z,19.94
2022-09-04T00:05:23.959Z,19.91
2022-09-04T00:10:32.491Z,19.79
2022-09-04T00:15:43.406Z,19.72
2022-09-04T00:20:51.787Z,19.58
2022-09-04T00:26:02.790Z,19.42
2022-09-04T00:31:18.501Z,19.25
2022-09-04T00:36:25.523Z,19.32
2022-09-04T00:41:31.808Z,19.28
2022-09-04T00:46:53.314Z,19.22
2022-09-04T00:52:07.133Z,19.18
2022-09-04T00:57:46.439Z,19.16
2022-09-04T01:03:15.497Z,19.05
2022-09-04T01:08:31.251Z,18.99
2022-09-04T01:13:41.547Z,18.92
2022-09-04T01:18:53.403Z,18.86
2022-09-04T01:24:32.811Z,18.83
2022-09-04T01:29:47.895Z,18.81
2022-09-04T01:34:59.718Z,18.73
2022-09-04T01:40:18.313Z,18.67
2022-09-04T01:45:31.278Z,18.55
2022-09-04T01:50:36.141Z,18.50
2022-09-04T01:55:45.900Z,18.47
2022-09-04T02:01:01.110Z,18.42
2022-09-04T02:06:13.778Z,18.37
2022-09-04T02:11:19.447Z,18.32
2022-09-04T02:16:42.849Z,18.32
2022-09-04T02:21:52.475Z,18.30
2022-09-04T02:27:01.902Z,18.26
2022-09-04T02:32:12.556Z,18.17
2022-09-04T02:37:23.390Z,18.13
2022-09-04T02:42:32.556Z,18.09
2022-09-04T02:47:45.934Z,18.03
2022-09-04T02:53:02.301Z,17.97
2022-09-04T02:58:18.116Z,17.99
2022-09-04T03:03:29.012Z,17.96
2022-09-04T03:08:37.760Z,17.97
2022-09-04T03:13:47.782Z,17.90
2022-09-04T03:19:05.194Z,17.92
2022-09-04T03:24:18.950Z,17.89
2022-09-04T03:29:31.517Z,17.88
2022-09-04T03:34:45.097Z,17.82
2022-09-04T03:40:02.300Z,17.77
2022-09-04T03:45:19.800Z,17.73
2022-09-04T03:50:32.228Z,17.75
2022-09-04T03:56:08.617Z,17.71
2022-09-04T04:01:25.189Z,17.70
2022-09-04T04:06:38.027Z,17.71
2022-09-04T04:11:55.584Z,17.65
2022-09-04T04:17:07.726Z,17.64
2022-09-04T04:22:42.396Z,17.56
2022-09-04T04:28:00.741Z,17.48
2022-09-04T04:33:19.434Z,17.47
2022-09-04T04:38:48.154Z,17.44
2022-09-04T04:44:06.070Z,17.40
2022-09-04T04:49:34.172Z,17.38
2022-09-04T04:54:53.970Z,17.35
2022-09-04T05:00:08.301Z,17.33
2022-09-04T05:05:17.607Z,17.32
2022-09-04T05:10:30.963Z,17.40
2022-09-04T05:16:05.003Z,17.44
2022-09-04T05:21:14.047Z,17.47
2022-09-04T05:26:27.584Z,17.46
2022-09-04T05:31:40.265Z,17.51
2022-09-04T05:36:52.322Z,17.55
2022-09-04T05:42:07.961Z,17.58
2022-09-04T05:47:20.317Z,17.63
2022-09-04T05:52:42.928Z,17.66
2022-09-04T05:58:02.014Z,17.72
2022-09-04T06:03:33.761Z,17.79
2022-09-04T06:08:53.745Z,17.88
2022-09-04T06:14:14.505Z,17.96
2022-09-04T06:19:35.174Z,18.04
2022-09-04T06:25:13.646Z,18.11
2022-09-04T06:30:19.047Z,18.21
2022-09-04T06:35:47.202Z,18.30
2022-09-04T06:41:02.234Z,18.38
2022-09-04T06:46:21.824Z,18.43
2022-09-04T06:51:42.296Z,18.55
2022-09-04T06:57:03.586Z,18.69
2022-09-04T07:02:22.067Z,18.80
2022-09-04T07:07:32.358Z,18.93
2022-09-04T07:12:56.657Z,19.01
2022-09-04T07:18:10.481Z,19.14
2022-09-04T07:23:25.561Z,19.27
2022-09-04T07:28:43.038Z,19.40
2022-09-04T07:33:56.535Z,19.52
2022-09-04T07:39:06.616Z,19.67
2022-09-04T07:44:17.053Z,19.78
2022-09-04T07:49:30.839Z,20.01
2022-09-04T07:54:59.069Z,20.22
2022-09-04T08:00:09.580Z,20.57
2022-09-04T08:05:24.497Z,20.97
2022-09-04T08:10:32.449Z,21.42
2022-09-04T08:15:43.940Z,21.81
2022-09-04T08:20:56.839Z,22.14
2022-09-04T08:26:14.549Z,22.51
2022-09-04T08:31:26.472Z,22.89
2022-09-04T08:36:35.998Z,23.25
2022-09-04T08:42:04.948Z,23.81
2022-09-04T08:47:35.594Z,24.23
2022-09-04T08:53:10.299Z,24.64
2022-09-04T08:58:47.952Z,25.08
2022-09-04T09:04:29.032Z,25.51
2022-09-04T09:10:11.502Z,25.97
2022-09-04T09:15:39.990Z,26.06
2022-09-04T09:20:50.656Z,26.54
2022-09-04T09:26:06.660Z,26.91
2022-09-04T09:32:01.640Z,27.29
2022-09-04T09:37:45.586Z,27.69
2022-09-04T09:43:30.148Z,28.13
2022-09-04T09:48:57.017Z,28.56
2022-09-04T09:54:31.645Z,28.85
2022-09-04T10:00:07.030Z,28.70
2022-09-04T10:06:01.152Z,29.31
2022-09-04T10:11:52.719Z,29.74
2022-09-04T10:17:25.015Z,29.76
2022-09-04T10:22:57.783Z,30.13
2022-09-04T10:28:30.161Z,30.41
2022-09-04T10:33:49.928Z,31.07
2022-09-04T10:39:26.337Z,31.29
2022-09-04T10:45:17.391Z,31.14
2022-09-04T10:50:41.325Z,31.31
2022-09-04T10:56:00.132Z,31.25
2022-09-04T11:01:23.688Z,30.99
2022-09-04T11:06:49.516Z,31.28
2022-09-04T11:12:31.564Z,31.59
2022-09-04T11:18:10.309Z,31.60
2022-09-04T11:24:06.939Z,31.89
2022-09-04T11:29:31.715Z,31.71
2022-09-04T11:35:19.404Z,31.58
2022-09-04T11:40:55.361Z,31.46
2022-09-04T11:46:26.237Z,31.41
2022-09-04T11:52:04.024Z,31.07
2022-09-04T11:57:16.073Z,31.28
2022-09-04T12:02:34.231Z,31.49
2022-09-04T12:07:59.443Z,31.37
2022-09-04T12:13:32.031Z,31.43
2022-09-04T12:19:21.228Z,31.66
2022-09-04T12:24:52.217Z,31.55
2022-09-04T12:30:06.801Z,31.65
2022-09-04T12:35:36.814Z,31.76
2022-09-04T12:40:49.103Z,31.77
2022-09-04T12:46:06.070Z,31.86
2022-09-04T12:51:16.851Z,31.93
2022-09-04T12:56:29.650Z,31.82
2022-09-04T13:01:45.094Z,32.08
2022-09-04T13:07:02.019Z,32.16
2022-09-04T13:12:21.808Z,32.09
2022-09-04T13:17:34.970Z,32.06
2022-09-04T13:22:52.856Z,32.07
2022-09-04T13:28:11.348Z,32.26
2022-09-04T13:33:40.044Z,32.32
2022-09-04T13:39:22.543Z,32.13
2022-09-04T13:44:55.567Z,32.22
2022-09-04T13:50:08.619Z,32.52
2022-09-04T13:55:18.107Z,32.62
2022-09-04T14:00:22.518Z,32.60
2022-09-04T14:05:27.268Z,32.55
2022-09-04T14:10:47.021Z,32.57
2022-09-04T14:16:03.964Z,32.59
2022-09-04T14:21:18.673Z,32.66
2022-09-04T14:26:35.776Z,32.74
2022-09-04T14:31:46.838Z,32.75
2022-09-04T14:37:00.455Z,32.57
2022-09-04T14:42:35.723Z,32.74
2022-09-04T14:47:45.498Z,32.74
2022-09-04T14:52:55.817Z,32.85
2022-09-04T14:58:06.410Z,32.74
2022-09-04T15:03:19.292Z,32.85
2022-09-04T15:08:28.851Z,32.89
2022-09-04T15:13:46.746Z,33.02
2022-09-04T15:19:00.059Z,33.35
2022-09-04T15:24:26.584Z,33.26
2022-09-04T15:29:39.643Z,33.16
2022-09-04T15:34:44.879Z,32.77
2022-09-04T15:39:59.870Z,32.76
2022-09-04T15:45:11.998Z,32.52
2022-09-04T15:50:22.553Z,32.40
2022-09-04T15:55:28.800Z,32.19
2022-09-04T16:00:36.764Z,32.21
2022-09-04T16:05:45.211Z,31.98
2022-09-04T16:10:57.614Z,31.80
2022-09-04T16:16:07.723Z,31.64
2022-09-04T16:21:21.373Z,31.60
2022-09-04T16:26:29.350Z,31.33
2022-09-04T16:31:35.787Z,31.03
2022-09-04T16:36:48.719Z,30.95
2022-09-04T16:41:59.182Z,31.03
2022-09-04T16:47:10.574Z,31.13
2022-09-04T16:52:45.668Z,31.17
2022-09-04T16:58:02.336Z,31.31
2022-09-04T17:03:34.333Z,31.35
2022-09-04T17:08:49.625Z,31.21
2022-09-04T17:13:58.978Z,30.86
2022-09-04T17:19:15.274Z,30.55
2022-09-04T17:29:02.125Z,30.29
2022-09-04T17:29:57.540Z,29.99
2022-09-04T17:40:41.685Z,29.64
2022-09-04T17:46:24.705Z,29.06
2022-09-04T17:51:32.128Z,28.80
2022-09-04T17:56:40.921Z,28.50
2022-09-04T18:01:52.420Z,28.21
2022-09-04T18:07:56.867Z,27.94
2022-09-04T18:12:38.956Z,27.61
2022-09-04T18:17:51.144Z,27.25
2022-09-04T18:23:17.701Z,26.88
2022-09-04T18:28:27.959Z,26.55
2022-09-04T18:37:26.902Z,26.22
2022-09-04T18:39:10.081Z,25.89
2022-09-04T18:50:23.163Z,25.65
2022-09-04T18:50:31.107Z,25.36
2022-09-04T18:55:18.406Z,25.05
2022-09-04T19:00:30.376Z,24.83
2022-09-04T19:05:44.767Z,24.63
2022-09-04T19:10:52.343Z,24.42
2022-09-04T19:16:02.918Z,24.22
2022-09-04T19:21:18.743Z,24.04
2022-09-04T19:26:34.898Z,23.85
2022-09-04T19:31:44.605Z,23.64
2022-09-04T19:36:52.994Z,23.47
2022-09-04T19:46:09.467Z,23.32
2022-09-04T19:47:46.936Z,23.15
2022-09-04T19:53:31.359Z,22.95
2022-09-04T19:58:20.020Z,22.72
2022-09-04T20:03:31.034Z,22.55
2022-09-04T20:08:41.790Z,22.43
2022-09-04T20:13:51.944Z,22.34
2022-09-04T20:19:01.444Z,22.23
2022-09-04T20:24:08.593Z,22.10
2022-09-04T20:29:19.626Z,22.01
2022-09-04T20:34:31.195Z,21.90
2022-09-04T20:39:43.794Z,21.72
2022-09-04T20:46:48.619Z,21.60
2022-09-04T20:52:51.379Z,21.47
2022-09-04T20:56:08.377Z,21.35
2022-09-04T21:03:18.784Z,21.24
2022-09-04T21:06:48.599Z,21.11
2022-09-04T21:11:54.653Z,21.06
2022-09-04T21:17:35.246Z,21.01
2022-09-04T21:23:04.184Z,20.90
2022-09-04T21:28:31.364Z,20.74
2022-09-04T21:33:42.612Z,20.61
2022-09-04T21:39:04.695Z,20.52
2022-09-04T21:44:55.840Z,20.45
2022-09-04T21:50:35.343Z,20.37
2022-09-04T21:59:15.413Z,20.30
2022-09-04T22:02:40.788Z,20.25
2022-09-04T22:08:20.472Z,20.18
2022-09-04T22:13:39.427Z,20.09
2022-09-04T22:18:21.706Z,20.08
2022-09-04T22:23:56.593Z,20.03
2022-09-04T22:29:35.378Z,19.98
2022-09-04T22:35:14.569Z,19.91
2022-09-04T22:40:33.467Z,19.81
2022-09-04T22:46:30.648Z,19.77
2022-09-04T22:51:47.941Z,19.63
2022-09-04T22:56:54.866Z,19.60
2022-09-04T23:03:04.065Z,19.56
2022-09-04T23:13:41.938Z,19.50
2022-09-04T23:14:07.749Z,19.39
2022-09-04T23:23:41.556Z,19.34
2022-09-04T23:26:47.343Z,19.27
2022-09-04T23:30:53.264Z,19.21
2022-09-04T23:36:04.058Z,19.13
2022-09-04T23:41:19.138Z,19.06
2022-09-04T23:46:38.623Z,18.97
2022-09-04T23:51:50.155Z,18.92
2022-09-04T23:57:00.804Z,18.84
